Time;durP1;ratioP1;P1;durP2;ratioP2;P2;SDS_P1;SDS_P2;PMS_P1;PMS_P2;Temp;Humidity;BMP_temperature;BMP_pressure;BME280_temperature;BME280_humidity;BME280_pressure;Samples;Min_cycle;Max_cycle;Signal;HPM_P1;HPM_P2
2022/08/14 00:01:39;;;;;;;;;;;20.90;62.00;;;;;;5043392;27;88778;-37
2022/08/14 00:04:04;;;;;;;;;;;20.90;61.90;;;;;;5047466;28;87444;-37
2022/08/14 00:06:30;;;;;;;;;;;20.90;61.90;;;;;;5044325;28;87051;-37
2022/08/14 00:08:55;;;;;;;;;;;20.90;61.90;;;;;;5043815;28;88140;-37
2022/08/14 00:11:21;;;;;;;;;;;20.90;62.00;;;;;;5043529;28;87993;-37
2022/08/14 00:13:47;;;;;;;;;;;20.90;61.90;;;;;;5044418;28;88566;-37
2022/08/14 00:16:13;;;;;;;;;;;20.90;61.90;;;;;;5043336;28;88440;-37
2022/08/14 00:18:39;;;;;;;;;;;20.90;62.00;;;;;;5044016;28;87049;-37
2022/08/14 00:21:05;;;;;;;;;;;20.90;62.00;;;;;;5044027;28;87568;-38
2022/08/14 00:23:31;;;;;;;;;;;20.90;62.10;;;;;;5043385;28;89556;-37
2022/08/14 00:25:56;;;;;;;;;;;20.80;62.10;;;;;;5046823;28;87108;-37
2022/08/14 00:28:25;;;;;;;;;;;20.80;62.10;;;;;;5043725;28;87246;-37
2022/08/14 00:30:52;;;;;;;;;;;20.80;61.90;;;;;;5043794;28;86833;-37
2022/08/14 00:33:17;;;;;;;;;;;20.90;61.90;;;;;;5043762;27;88780;-37
2022/08/14 00:35:43;;;;;;;;;;;20.80;62.10;;;;;;5043043;28;88934;-37
2022/08/14 00:38:09;;;;;;;;;;;20.80;62.00;;;;;;5043626;28;87062;-37
2022/08/14 00:40:35;;;;;;;;;;;20.80;61.90;;;;;;5043876;27;87484;-37
2022/08/14 00:43:01;;;;;;;;;;;20.80;61.90;;;;;;5042981;28;87247;-37
2022/08/14 00:45:26;;;;;;;;;;;20.80;62.00;;;;;;5043804;28;87069;-37
2022/08/14 00:47:52;;;;;;;;;;;20.80;62.10;;;;;;5046040;27;88592;-37
2022/08/14 00:50:19;;;;;;;;;;;20.80;62.20;;;;;;5043727;28;87159;-37
2022/08/14 00:52:46;;;;;;;;;;;20.70;62.00;;;;;;5043795;28;87360;-37
2022/08/14 00:55:12;;;;;;;;;;;20.70;62.10;;;;;;5043240;28;88016;-37
2022/08/14 00:57:37;;;;;;;;;;;20.70;62.10;;;;;;5043222;28;87128;-37
2022/08/14 01:00:11;;;;;;;;;;;20.70;62.00;;;;;;5042479;27;87960;-37
2022/08/14 01:02:38;;;;;;;;;;;20.70;62.10;;;;;;5042827;28;89275;-37
2022/08/14 01:05:06;;;;;;;;;;;20.70;62.00;;;;;;5043206;28;87245;-37
2022/08/14 01:07:32;;;;;;;;;;;20.70;62.10;;;;;;5045593;27;88914;-37
2022/08/14 01:10:00;;;;;;;;;;;20.70;62.10;;;;;;5043455;28;87183;-37
2022/08/14 01:12:26;;;;;;;;;;;20.70;62.10;;;;;;5041797;27;88839;-37
2022/08/14 01:14:54;;;;;;;;;;;20.70;62.20;;;;;;5042693;28;87968;-37
2022/08/14 01:17:20;;;;;;;;;;;20.70;62.10;;;;;;5043684;28;86342;-37
2022/08/14 01:22:29;;;;;;;;;;;20.70;62.10;;;;;;5042837;28;87271;-37
2022/08/14 01:24:56;;;;;;;;;;;20.70;62.30;;;;;;5042317;28;87947;-37
2022/08/14 01:27:22;;;;;;;;;;;20.60;62.10;;;;;;5042404;27;88759;-37
2022/08/14 01:29:48;;;;;;;;;;;20.70;62.40;;;;;;5045785;28;88071;-37
2022/08/14 01:32:17;;;;;;;;;;;20.60;62.40;;;;;;5042703;28;88843;-37
2022/08/14 01:34:43;;;;;;;;;;;20.60;62.40;;;;;;5042497;28;88000;-37
2022/08/14 01:37:09;;;;;;;;;;;20.60;62.10;;;;;;5042901;28;87649;-37
2022/08/14 01:39:35;;;;;;;;;;;20.60;62.30;;;;;;5042528;27;87852;-37
2022/08/14 01:42:01;;;;;;;;;;;20.60;62.10;;;;;;5042775;28;88854;-37
2022/08/14 01:44:28;;;;;;;;;;;20.60;62.30;;;;;;5042483;28;86876;-37
2022/08/14 01:46:55;;;;;;;;;;;20.60;62.30;;;;;;5042588;28;89041;-37
2022/08/14 01:49:21;;;;;;;;;;;20.60;62.10;;;;;;5041632;28;88924;-37
2022/08/14 01:51:47;;;;;;;;;;;20.60;62.30;;;;;;5045290;28;87103;-37
2022/08/14 01:54:19;;;;;;;;;;;20.60;62.30;;;;;;5041979;28;87976;-37
2022/08/14 01:56:45;;;;;;;;;;;20.60;62.20;;;;;;5042470;28;86981;-37
2022/08/14 01:59:20;;;;;;;;;;;20.50;62.20;;;;;;5042361;27;88729;-37
2022/08/14 02:01:46;;;;;;;;;;;20.60;62.20;;;;;;5041964;28;89825;-37
2022/08/14 02:04:13;;;;;;;;;;;20.50;62.20;;;;;;5042522;28;87136;-37
2022/08/14 02:06:38;;;;;;;;;;;20.50;62.20;;;;;;5042616;27;89187;-37
2022/08/14 02:09:04;;;;;;;;;;;20.50;62.20;;;;;;5042155;28;88400;-37
2022/08/14 02:11:30;;;;;;;;;;;20.50;62.30;;;;;;5042407;28;87029;-37
2022/08/14 02:13:59;;;;;;;;;;;20.50;62.20;;;;;;5044393;28;87943;-37
2022/08/14 02:16:28;;;;;;;;;;;20.50;62.30;;;;;;5041862;28;87096;-37
2022/08/14 02:18:55;;;;;;;;;;;20.50;62.20;;;;;;5042314;28;87493;-37
2022/08/14 02:21:21;;;;;;;;;;;20.50;62.20;;;;;;5041515;28;89506;-37
2022/08/14 02:23:47;;;;;;;;;;;20.50;62.30;;;;;;5043881;27;87283;-37
2022/08/14 02:26:17;;;;;;;;;;;20.50;62.40;;;;;;5045772;27;87012;-37
2022/08/14 02:28:44;;;;;;;;;;;20.40;62.20;;;;;;5045248;28;87794;-37
2022/08/14 02:31:11;;;;;;;;;;;20.40;62.20;;;;;;5046031;28;86363;-37
2022/08/14 02:33:36;;;;;;;;;;;20.50;62.40;;;;;;5045515;27;88318;-37
2022/08/14 02:36:02;;;;;;;;;;;20.40;62.20;;;;;;5048185;28;88107;-37
2022/08/14 02:38:29;;;;;;;;;;;20.40;62.20;;;;;;5045133;28;88051;-37
2022/08/14 02:40:56;;;;;;;;;;;20.40;62.40;;;;;;5045247;28;87958;-37
2022/08/14 02:43:22;;;;;;;;;;;20.40;62.30;;;;;;5045410;28;87036;-37
2022/08/14 02:45:48;;;;;;;;;;;20.40;62.30;;;;;;5045806;27;87329;-37
2022/08/14 02:48:13;;;;;;;;;;;20.40;62.40;;;;;;5044867;28;89657;-37
2022/08/14 02:50:40;;;;;;;;;;;20.30;62.40;;;;;;5044993;28;86970;-37
2022/08/14 02:53:06;;;;;;;;;;;20.40;62.30;;;;;;5045267;27;89009;-37
2022/08/14 02:55:32;;;;;;;;;;;20.40;62.40;;;;;;5045314;28;87385;-37
2022/08/14 02:57:58;;;;;;;;;;;20.30;62.20;;;;;;5048241;28;87034;-37
2022/08/14 03:00:24;;;;;;;;;;;20.40;62.50;;;;;;5045100;28;88033;-37
2022/08/14 03:02:50;;;;;;;;;;;20.30;62.40;;;;;;5044610;28;88008;-37
2022/08/14 03:05:16;;;;;;;;;;;20.30;62.40;;;;;;5044890;27;89792;-37
2022/08/14 03:07:43;;;;;;;;;;;20.30;62.30;;;;;;5044829;28;87985;-37
2022/08/14 03:10:09;;;;;;;;;;;20.30;62.40;;;;;;5045205;28;87115;-37
2022/08/14 03:12:35;;;;;;;;;;;20.30;62.50;;;;;;5045101;27;86875;-37
2022/08/14 03:15:09;;;;;;;;;;;20.30;62.30;;;;;;5044508;28;88024;-38
2022/08/14 03:17:35;;;;;;;;;;;20.30;62.30;;;;;;5047898;28;86981;-37
2022/08/14 03:20:00;;;;;;;;;;;20.30;62.40;;;;;;5044941;28;86135;-37
2022/08/14 03:22:26;;;;;;;;;;;20.30;62.50;;;;;;5044866;28;87052;-37
2022/08/14 03:24:52;;;;;;;;;;;20.30;62.40;;;;;;5044915;27;87173;-37
2022/08/14 03:27:17;;;;;;;;;;;20.20;62.50;;;;;;5043639;28;89039;-37
2022/08/14 03:29:44;;;;;;;;;;;20.30;62.50;;;;;;5044922;28;86971;-37
2022/08/14 03:32:09;;;;;;;;;;;20.30;62.50;;;;;;5044680;27;88028;-37
2022/08/14 03:34:36;;;;;;;;;;;20.20;62.40;;;;;;5043300;27;87921;-37
2022/08/14 03:37:02;;;;;;;;;;;20.20;62.60;;;;;;5044703;28;86970;-37
2022/08/14 03:39:28;;;;;;;;;;;20.20;62.70;;;;;;5047475;28;87396;-37
2022/08/14 03:41:55;;;;;;;;;;;20.20;62.60;;;;;;5044628;28;86980;-37
2022/08/14 03:44:21;;;;;;;;;;;20.20;62.50;;;;;;5045043;27;87381;-37
2022/08/14 03:46:46;;;;;;;;;;;20.20;62.50;;;;;;5043795;28;88614;-37
2022/08/14 03:49:12;;;;;;;;;;;20.20;62.50;;;;;;5044274;28;87092;-37
2022/08/14 03:51:39;;;;;;;;;;;20.20;62.40;;;;;;5043564;28;88855;-37
2022/08/14 03:54:07;;;;;;;;;;;20.20;62.60;;;;;;5044272;28;87919;-37
2022/08/14 03:56:34;;;;;;;;;;;20.20;62.40;;;;;;5044244;28;87068;-37
2022/08/14 03:59:10;;;;;;;;;;;20.20;62.40;;;;;;5044572;27;87241;-37
2022/08/14 04:01:38;;;;;;;;;;;20.20;62.30;;;;;;5046278;28;89699;-37
2022/08/14 04:04:05;;;;;;;;;;;20.20;62.40;;;;;;5044230;27;88654;-37
2022/08/14 04:06:32;;;;;;;;;;;20.20;62.60;;;;;;5043694;28;89342;-37
2022/08/14 04:08:58;;;;;;;;;;;20.10;62.50;;;;;;5044753;28;86551;-37
2022/08/14 04:11:24;;;;;;;;;;;20.20;62.60;;;;;;5044408;28;86978;-37
2022/08/14 04:13:49;;;;;;;;;;;20.10;62.50;;;;;;5043814;28;88077;-37
2022/08/14 04:16:21;;;;;;;;;;;20.10;62.50;;;;;;5043105;28;88007;-37
2022/08/14 04:18:53;;;;;;;;;;;20.10;62.60;;;;;;5044225;27;88302;-37
2022/08/14 04:21:23;;;;;;;;;;;20.10;62.70;;;;;;5043689;28;88184;-37
2022/08/14 04:23:49;;;;;;;;;;;20.10;62.50;;;;;;5046798;28;86993;-37
2022/08/14 04:26:17;;;;;;;;;;;20.10;62.60;;;;;;5043393;28;89836;-37
2022/08/14 04:28:43;;;;;;;;;;;20.10;62.60;;;;;;5043689;28;86999;-37
2022/08/14 04:31:09;;;;;;;;;;;20.10;62.70;;;;;;5044110;27;87565;-37
2022/08/14 04:33:35;;;;;;;;;;;20.10;62.60;;;;;;5043690;28;89114;-37
2022/08/14 04:36:01;;;;;;;;;;;20.10;62.80;;;;;;5043643;28;86930;-37
2022/08/14 04:43:54;;;;;;;;;;;20.00;62.70;;;;;;5043975;28;87222;-37
2022/08/14 04:46:21;;;;;;;;;;;20.00;62.60;;;;;;5045693;28;88128;-37
2022/08/14 04:48:47;;;;;;;;;;;20.00;62.60;;;;;;5043515;28;87102;-37
2022/08/14 04:51:14;;;;;;;;;;;20.00;62.70;;;;;;5043844;27;87341;-37
2022/08/14 04:53:44;;;;;;;;;;;20.00;62.50;;;;;;5043219;28;88140;-37
2022/08/14 04:56:13;;;;;;;;;;;20.00;62.40;;;;;;5043139;28;87124;-37
2022/08/14 04:58:39;;;;;;;;;;;20.00;62.50;;;;;;5043804;27;88037;-37
2022/08/14 05:01:06;;;;;;;;;;;20.00;62.60;;;;;;5042905;28;89483;-37
2022/08/14 05:03:33;;;;;;;;;;;20.00;62.70;;;;;;5043207;28;87176;-37
2022/08/14 05:05:59;;;;;;;;;;;20.00;62.70;;;;;;5042807;27;87960;-37
2022/08/14 05:08:25;;;;;;;;;;;20.00;62.60;;;;;;5045831;28;87881;-37
2022/08/14 05:10:53;;;;;;;;;;;20.00;62.60;;;;;;5043104;27;89273;-37
2022/08/14 05:13:19;;;;;;;;;;;20.00;62.50;;;;;;5042778;28;88611;-37
2022/08/14 05:15:45;;;;;;;;;;;20.00;62.70;;;;;;5043008;28;87088;-37
2022/08/14 05:18:12;;;;;;;;;;;20.00;62.70;;;;;;5043083;27;86923;-37
2022/08/14 05:20:44;;;;;;;;;;;20.00;62.60;;;;;;5042656;28;88207;-37
2022/08/14 05:23:10;;;;;;;;;;;19.90;62.80;;;;;;5043100;28;86430;-37
2022/08/14 05:25:36;;;;;;;;;;;19.90;62.70;;;;;;5043287;28;88165;-37
2022/08/14 05:28:09;;;;;;;;;;;19.90;62.80;;;;;;5045430;28;87978;-37
2022/08/14 05:30:35;;;;;;;;;;;19.90;62.60;;;;;;5042416;28;87810;-37
2022/08/14 05:33:01;;;;;;;;;;;19.90;62.70;;;;;;5042263;28;88417;-37
2022/08/14 05:35:26;;;;;;;;;;;19.90;62.70;;;;;;5042525;28;87094;-37
2022/08/14 05:37:52;;;;;;;;;;;19.90;62.50;;;;;;5042325;28;87487;-37
2022/08/14 05:40:18;;;;;;;;;;;19.90;62.80;;;;;;5041928;28;89847;-37
2022/08/14 05:42:43;;;;;;;;;;;19.90;62.50;;;;;;5041832;27;88060;-37
2022/08/14 05:45:09;;;;;;;;;;;19.90;62.80;;;;;;5041896;27;88851;-36
2022/08/14 05:47:38;;;;;;;;;;;19.80;63.20;;;;;;5042362;28;87065;-37
2022/08/14 05:50:05;;;;;;;;;;;19.90;62.70;;;;;;5045202;28;87081;-37
2022/08/14 05:52:31;;;;;;;;;;;19.90;62.70;;;;;;5041297;28;89174;-37
2022/08/14 05:54:57;;;;;;;;;;;19.80;62.50;;;;;;5041669;28;87935;-37
2022/08/14 05:57:22;;;;;;;;;;;19.80;62.80;;;;;;5042157;27;88355;-37
2022/08/14 05:59:48;;;;;;;;;;;19.80;62.80;;;;;;5045105;28;88290;-37
2022/08/14 06:02:13;;;;;;;;;;;19.80;62.70;;;;;;5045895;28;87040;-37
2022/08/14 06:04:40;;;;;;;;;;;19.80;62.70;;;;;;5045815;27;87170;-37
2022/08/14 06:07:05;;;;;;;;;;;19.80;63.00;;;;;;5045064;28;87443;-37
2022/08/14 06:09:31;;;;;;;;;;;19.80;62.70;;;;;;5045637;28;87131;-37
2022/08/14 06:11:57;;;;;;;;;;;19.80;62.70;;;;;;5048355;28;87413;-37
2022/08/14 06:14:23;;;;;;;;;;;19.80;63.00;;;;;;5045381;28;87094;-37
2022/08/14 06:16:49;;;;;;;;;;;19.80;63.00;;;;;;5044768;27;89343;-37
2022/08/14 06:19:14;;;;;;;;;;;19.80;63.00;;;;;;5044424;28;89331;-37
2022/08/14 06:21:40;;;;;;;;;;;19.70;62.80;;;;;;5045270;28;87109;-37
2022/08/14 06:24:06;;;;;;;;;;;19.70;63.70;;;;;;5045378;28;87212;-37
2022/08/14 06:26:31;;;;;;;;;;;19.70;62.90;;;;;;5045071;28;88888;-37
2022/08/14 06:28:57;;;;;;;;;;;19.80;62.90;;;;;;5045177;28;87098;-37
2022/08/14 06:31:22;;;;;;;;;;;19.70;62.80;;;;;;5045455;28;87351;-37
2022/08/14 06:33:49;;;;;;;;;;;19.70;62.90;;;;;;5047770;28;89427;-37
2022/08/14 06:36:16;;;;;;;;;;;19.70;62.80;;;;;;5045634;27;88788;-37
2022/08/14 06:38:42;;;;;;;;;;;19.80;62.70;;;;;;5045002;28;87290;-37
2022/08/14 06:41:07;;;;;;;;;;;19.70;62.80;;;;;;5045264;28;87077;-37
2022/08/14 06:43:33;;;;;;;;;;;19.70;62.70;;;;;;5044649;28;87951;-37
2022/08/14 06:45:59;;;;;;;;;;;19.70;62.90;;;;;;5044851;28;86842;-37
2022/08/14 06:48:26;;;;;;;;;;;19.70;62.70;;;;;;5044710;28;87597;-37
2022/08/14 06:50:52;;;;;;;;;;;19.70;63.00;;;;;;5044856;27;88802;-36
2022/08/14 06:53:18;;;;;;;;;;;19.70;63.00;;;;;;5044604;28;87978;-37
2022/08/14 06:55:45;;;;;;;;;;;19.70;62.70;;;;;;5048105;28;87020;-37
2022/08/14 06:58:15;;;;;;;;;;;19.70;63.00;;;;;;5044547;28;89559;-37
2022/08/14 07:05:44;;;;;;;;;;;19.70;62.90;;;;;;5045753;28;86382;-37
2022/08/14 07:06:29;;;;;;;;;;;19.70;62.70;;;;;;5044957;28;87380;-37
2022/08/14 07:08:55;;;;;;;;;;;19.60;62.90;;;;;;5044318;27;88201;-37
2022/08/14 07:11:21;;;;;;;;;;;19.70;62.80;;;;;;5045080;27;88586;-36
2022/08/14 07:13:47;;;;;;;;;;;19.70;62.80;;;;;;5044541;28;88038;-37
2022/08/14 07:16:12;;;;;;;;;;;19.70;62.90;;;;;;5044204;28;87707;-37
2022/08/14 07:18:40;;;;;;;;;;;19.60;62.70;;;;;;5047538;28;87624;-37
2022/08/14 07:21:06;;;;;;;;;;;19.60;62.90;;;;;;5044466;28;87014;-37
2022/08/14 07:23:31;;;;;;;;;;;19.60;62.70;;;;;;5044781;27;87551;-37
2022/08/14 07:25:58;;;;;;;;;;;19.60;62.90;;;;;;5044598;28;88569;-37
2022/08/14 07:28:25;;;;;;;;;;;19.70;63.00;;;;;;5044230;28;87075;-37
2022/08/14 07:30:56;;;;;;;;;;;19.60;62.80;;;;;;5044248;27;87924;-37
2022/08/14 07:33:22;;;;;;;;;;;19.60;63.00;;;;;;5043258;28;90415;-37
2022/08/14 07:35:48;;;;;;;;;;;19.60;62.90;;;;;;5044605;28;87092;-37
2022/08/14 07:38:17;;;;;;;;;;;19.60;63.00;;;;;;5047273;28;87399;-36
2022/08/14 07:40:42;;;;;;;;;;;19.60;62.70;;;;;;5044610;28;87064;-37
2022/08/14 07:43:08;;;;;;;;;;;19.60;62.90;;;;;;5044325;28;87559;-37
2022/08/14 07:45:33;;;;;;;;;;;19.60;63.00;;;;;;5044067;28;88045;-37
2022/08/14 07:47:59;;;;;;;;;;;19.60;62.90;;;;;;5044407;28;87174;-36
2022/08/14 07:50:24;;;;;;;;;;;19.60;62.80;;;;;;5044918;28;87439;-37
2022/08/14 07:52:50;;;;;;;;;;;19.60;62.70;;;;;;5044035;28;87114;-37
2022/08/14 07:55:16;;;;;;;;;;;19.60;62.80;;;;;;5044570;28;86992;-37
2022/08/14 07:57:42;;;;;;;;;;;19.70;63.00;;;;;;5043778;28;87933;-39
2022/08/14 08:00:11;;;;;;;;;;;19.70;62.80;;;;;;5046737;28;88105;-37
2022/08/14 08:02:37;;;;;;;;;;;19.60;63.50;;;;;;5044187;27;88972;-37
2022/08/14 08:05:04;;;;;;;;;;;19.60;62.80;;;;;;5044021;28;88015;-37
2022/08/14 08:07:30;;;;;;;;;;;19.70;62.80;;;;;;5043920;28;87138;-37
2022/08/14 08:09:56;;;;;;;;;;;19.60;62.90;;;;;;5044230;27;87230;-37
2022/08/14 08:12:23;;;;;;;;;;;19.60;62.70;;;;;;5043834;28;88365;-37
2022/08/14 08:14:50;;;;;;;;;;;19.70;62.70;;;;;;5044604;28;86427;-37
2022/08/14 08:17:16;;;;;;;;;;;19.70;62.80;;;;;;5043960;27;88110;-37
2022/08/14 08:19:42;;;;;;;;;;;19.60;62.80;;;;;;5043829;28;89299;-37
2022/08/14 08:22:07;;;;;;;;;;;19.70;62.70;;;;;;5045797;27;88021;-37
2022/08/14 08:24:34;;;;;;;;;;;19.70;62.70;;;;;;5043759;28;88118;-37
2022/08/14 08:27:01;;;;;;;;;;;19.70;62.70;;;;;;5043665;28;87589;-37
2022/08/14 08:29:26;;;;;;;;;;;19.70;62.80;;;;;;5043567;28;86941;-37
2022/08/14 08:31:52;;;;;;;;;;;19.70;62.90;;;;;;5043322;28;89176;-37
2022/08/14 08:34:18;;;;;;;;;;;19.70;62.70;;;;;;5043653;28;87127;-37
2022/08/14 08:36:44;;;;;;;;;;;19.70;62.90;;;;;;5043863;27;88812;-37
2022/08/14 08:39:10;;;;;;;;;;;19.70;62.80;;;;;;5043969;28;87301;-37
2022/08/14 08:41:43;;;;;;;;;;;19.70;63.00;;;;;;5043519;28;86906;-37
2022/08/14 08:44:08;;;;;;;;;;;19.70;62.90;;;;;;5046090;27;86899;-37
2022/08/14 08:46:34;;;;;;;;;;;19.70;62.80;;;;;;5043201;28;88106;-37
2022/08/14 08:48:59;;;;;;;;;;;19.80;62.90;;;;;;5043395;27;89838;-37
2022/08/14 08:51:29;;;;;;;;;;;19.70;62.90;;;;;;5043352;28;88086;-37
2022/08/14 08:53:56;;;;;;;;;;;19.70;62.80;;;;;;5043517;28;86971;-37
2022/08/14 08:56:31;;;;;;;;;;;19.70;63.00;;;;;;5043466;27;87344;-37
2022/08/14 08:58:57;;;;;;;;;;;19.80;63.00;;;;;;5043394;28;87997;-37
2022/08/14 09:01:26;;;;;;;;;;;19.80;62.90;;;;;;5043447;28;86975;-37
2022/08/14 09:04:00;;;;;;;;;;;19.80;62.90;;;;;;5043653;27;87525;-37
2022/08/14 09:06:25;;;;;;;;;;;19.80;62.80;;;;;;5045931;27;88234;-37
2022/08/14 09:08:50;;;;;;;;;;;19.80;62.80;;;;;;5043312;28;87510;-37
2022/08/14 09:11:16;;;;;;;;;;;19.80;62.90;;;;;;5042382;28;89002;-37
2022/08/14 09:13:43;;;;;;;;;;;19.80;62.90;;;;;;5042704;28;87070;-37
2022/08/14 09:16:08;;;;;;;;;;;19.80;62.80;;;;;;5042505;28;87285;-37
2022/08/14 09:18:34;;;;;;;;;;;19.80;62.70;;;;;;5042761;28;88253;-37
2022/08/14 09:21:00;;;;;;;;;;;19.80;62.80;;;;;;5043235;28;87110;-37
2022/08/14 09:23:26;;;;;;;;;;;19.80;63.00;;;;;;5043118;27;87653;-37
2022/08/14 09:25:53;;;;;;;;;;;19.80;63.10;;;;;;5042747;28;87191;-37
2022/08/14 09:28:19;;;;;;;;;;;19.80;62.90;;;;;;5046100;27;86250;-37
2022/08/14 09:31:02;;;;;;;;;;;19.80;63.00;;;;;;5042973;28;88293;-37
2022/08/14 09:33:33;;;;;;;;;;;19.80;62.90;;;;;;5041639;28;87000;-37
2022/08/14 09:36:11;;;;;;;;;;;19.80;63.00;;;;;;5042259;28;88870;-37
2022/08/14 09:38:36;;;;;;;;;;;19.80;63.00;;;;;;5042566;28;87322;-37
2022/08/14 09:41:29;;;;;;;;;;;19.90;62.70;;;;;;5042861;28;87176;-37
2022/08/14 09:44:18;;;;;;;;;;;19.90;62.90;;;;;;5042952;28;87477;-37
2022/08/14 09:46:54;;;;;;;;;;;19.90;62.80;;;;;;5042232;28;88060;-37
2022/08/14 09:49:28;;;;;;;;;;;19.90;62.90;;;;;;5045715;28;87412;-37
2022/08/14 09:52:01;;;;;;;;;;;19.90;63.00;;;;;;5042456;28;87779;-37
2022/08/14 09:54:34;;;;;;;;;;;19.90;63.00;;;;;;5043380;28;86160;-37
2022/08/14 09:57:03;;;;;;;;;;;19.90;63.10;;;;;;5042736;28;87318;-37
2022/08/14 09:59:38;;;;;;;;;;;19.90;63.10;;;;;;5042224;28;89131;-37
2022/08/14 10:02:05;;;;;;;;;;;20.00;63.10;;;;;;5042135;28;87946;-37
2022/08/14 10:04:31;;;;;;;;;;;19.90;63.10;;;;;;5042346;27;88931;-37
2022/08/14 10:06:57;;;;;;;;;;;19.90;62.80;;;;;;5041946;28;89515;-37
2022/08/14 10:09:23;;;;;;;;;;;19.90;63.10;;;;;;5042331;28;86995;-37
2022/08/14 10:11:53;;;;;;;;;;;19.90;63.30;;;;;;5045030;28;86949;-37
2022/08/14 10:14:20;;;;;;;;;;;19.90;62.80;;;;;;5042392;28;87130;-37
2022/08/14 10:16:51;;;;;;;;;;;19.90;63.20;;;;;;5042074;27;88738;-37
2022/08/14 10:19:18;;;;;;;;;;;19.90;63.10;;;;;;5042252;28;88770;-37
2022/08/14 10:21:55;;;;;;;;;;;19.90;63.20;;;;;;5042032;28;87113;-37
2022/08/14 10:24:24;;;;;;;;;;;19.80;63.00;;;;;;5042069;28;87470;-37
2022/08/14 10:26:53;;;;;;;;;;;19.80;62.80;;;;;;5041184;28;88993;-37
2022/08/14 10:29:30;;;;;;;;;;;19.70;63.20;;;;;;5042073;28;87084;-37
2022/08/14 10:31:57;;;;;;;;;;;19.80;63.10;;;;;;5042169;27;88957;-37
2022/08/14 10:34:29;;;;;;;;;;;19.80;63.20;;;;;;5044643;28;88484;-37
2022/08/14 10:37:02;;;;;;;;;;;19.70;63.30;;;;;;5042246;28;87400;-37
2022/08/14 10:39:28;;;;;;;;;;;19.70;63.20;;;;;;5041751;28;89315;-37
2022/08/14 10:42:07;;;;;;;;;;;19.70;64.20;;;;;;5041960;28;87585;-37
2022/08/14 10:44:34;;;;;;;;;;;19.70;63.40;;;;;;5043623;27;89062;-37
2022/08/14 10:47:06;;;;;;;;;;;19.60;63.30;;;;;;5044972;28;89336;-37
2022/08/14 10:49:33;;;;;;;;;;;19.70;63.80;;;;;;5045752;28;87002;-37
2022/08/14 10:52:06;;;;;;;;;;;19.60;63.60;;;;;;5044451;27;88903;-37
2022/08/14 10:54:41;;;;;;;;;;;19.70;63.70;;;;;;5044936;28;88285;-37
2022/08/14 10:57:10;;;;;;;;;;;19.60;63.90;;;;;;5048372;28;86972;-37
2022/08/14 10:59:46;;;;;;;;;;;19.70;63.80;;;;;;5044978;28;88283;-37
2022/08/14 11:02:29;;;;;;;;;;;19.60;64.00;;;;;;5044776;28;86912;-37
2022/08/14 11:04:57;;;;;;;;;;;19.60;63.90;;;;;;5045266;28;87431;-37
2022/08/14 11:07:23;;;;;;;;;;;19.60;64.10;;;;;;5044995;28;87953;-37
2022/08/14 11:09:52;;;;;;;;;;;19.60;64.00;;;;;;5045664;28;86346;-37
2022/08/14 11:12:18;;;;;;;;;;;19.60;63.90;;;;;;5045224;28;86870;-37
2022/08/14 11:14:51;;;;;;;;;;;19.60;63.80;;;;;;5044541;28;88279;-37
2022/08/14 11:17:16;;;;;;;;;;;19.70;63.60;;;;;;5044225;28;88003;-37
2022/08/14 11:19:42;;;;;;;;;;;19.60;64.00;;;;;;5047304;27;88376;-37
2022/08/14 11:22:08;;;;;;;;;;;19.70;63.80;;;;;;5044710;28;87010;-37
2022/08/14 11:24:35;;;;;;;;;;;19.70;64.00;;;;;;5045051;27;87398;-37
2022/08/14 11:27:01;;;;;;;;;;;19.70;64.20;;;;;;5044172;28;89316;-37
2022/08/14 11:29:27;;;;;;;;;;;19.70;63.80;;;;;;5044768;28;86965;-37
2022/08/14 11:31:54;;;;;;;;;;;19.70;64.20;;;;;;5045014;27;86875;-37
2022/08/14 11:34:19;;;;;;;;;;;19.70;64.20;;;;;;5045033;28;87249;-37
2022/08/14 11:36:45;;;;;;;;;;;19.70;64.20;;;;;;5044636;28;87031;-37
2022/08/14 11:39:17;;;;;;;;;;;19.60;64.50;;;;;;5047175;28;88124;-37
2022/08/14 11:41:45;;;;;;;;;;;19.70;64.40;;;;;;5043922;28;87980;-37
2022/08/14 11:44:10;;;;;;;;;;;19.60;64.50;;;;;;5044385;27;89872;-37
2022/08/14 11:46:36;;;;;;;;;;;19.60;64.50;;;;;;5044352;28;88202;-37
2022/08/14 11:49:02;;;;;;;;;;;19.60;64.60;;;;;;5044305;28;87182;-37
2022/08/14 11:51:27;;;;;;;;;;;19.60;64.50;;;;;;5044739;27;87012;-37
2022/08/14 11:53:53;;;;;;;;;;;19.60;64.50;;;;;;5043861;28;89868;-37
2022/08/14 11:56:19;;;;;;;;;;;19.60;64.60;;;;;;5043404;27;87787;-37
2022/08/14 11:58:49;;;;;;;;;;;19.60;65.10;;;;;;5045042;28;87995;-37
2022/08/14 12:01:15;;;;;;;;;;;19.60;65.20;;;;;;5046914;28;89402;-37
2022/08/14 12:03:42;;;;;;;;;;;19.60;65.20;;;;;;5044301;28;87396;-36
2022/08/14 12:06:12;;;;;;;;;;;19.60;65.20;;;;;;5043332;28;88851;-37
2022/08/14 12:08:37;;;;;;;;;;;19.60;65.10;;;;;;5044065;28;86956;-37
2022/08/14 12:11:04;;;;;;;;;;;19.70;65.40;;;;;;5043773;27;89890;-37
2022/08/14 12:13:33;;;;;;;;;;;19.70;65.40;;;;;;5043888;28;88471;-37
2022/08/14 12:16:00;;;;;;;;;;;19.70;65.40;;;;;;5043459;28;87084;-37
2022/08/14 12:18:31;;;;;;;;;;;19.70;65.70;;;;;;5044034;27;87222;-37
2022/08/14 12:20:57;;;;;;;;;;;19.70;65.80;;;;;;5043518;28;87818;-37
2022/08/14 12:23:24;;;;;;;;;;;19.70;65.80;;;;;;5047509;28;86371;-37
2022/08/14 12:26:00;;;;;;;;;;;19.70;65.70;;;;;;5043189;28;91200;-37
2022/08/14 12:28:26;;;;;;;;;;;19.80;65.90;;;;;;5043702;28;86939;-37
2022/08/14 12:30:52;;;;;;;;;;;19.80;65.80;;;;;;5043249;28;87918;-37
2022/08/14 12:33:21;;;;;;;;;;;19.80;65.80;;;;;;5043253;28;87961;-37
2022/08/14 12:35:48;;;;;;;;;;;19.80;66.00;;;;;;5043580;28;87164;-37
2022/08/14 12:38:15;;;;;;;;;;;19.80;65.90;;;;;;5043679;28;87438;-37
2022/08/14 12:41:00;;;;;;;;;;;19.80;66.00;;;;;;5042985;28;89691;-37
2022/08/14 12:43:26;;;;;;;;;;;19.80;66.00;;;;;;5043644;28;87102;-37
2022/08/14 12:45:55;;;;;;;;;;;19.80;66.00;;;;;;5046287;27;87338;-37
2022/08/14 12:48:22;;;;;;;;;;;19.80;66.00;;;;;;5043678;28;86377;-37
2022/08/14 12:50:50;;;;;;;;;;;19.80;66.00;;;;;;5043329;28;87295;-37
2022/08/14 12:53:17;;;;;;;;;;;19.80;65.90;;;;;;5042763;28;88523;-37
2022/08/14 12:55:44;;;;;;;;;;;19.80;66.00;;;;;;5042348;28;87996;-37
2022/08/14 12:58:10;;;;;;;;;;;19.80;66.00;;;;;;5042994;27;89893;-37
2022/08/14 13:00:37;;;;;;;;;;;19.80;65.90;;;;;;5042871;28;87986;-37
2022/08/14 13:03:04;;;;;;;;;;;19.80;66.00;;;;;;5042886;28;87087;-37
2022/08/14 13:05:31;;;;;;;;;;;19.80;65.90;;;;;;5043151;27;88983;-37
2022/08/14 13:07:57;;;;;;;;;;;19.80;65.90;;;;;;5045425;27;87842;-37
2022/08/14 13:10:23;;;;;;;;;;;19.80;65.90;;;;;;5043093;27;88855;-37
2022/08/14 13:12:50;;;;;;;;;;;19.80;65.90;;;;;;5043413;28;86506;-37
2022/08/14 13:15:19;;;;;;;;;;;19.80;65.80;;;;;;5042643;28;87038;-37
2022/08/14 13:17:49;;;;;;;;;;;19.80;65.80;;;;;;5043241;27;87731;-39
2022/08/14 13:20:15;;;;;;;;;;;19.90;65.80;;;;;;5041999;28;89052;-37
2022/08/14 13:22:43;;;;;;;;;;;19.80;65.80;;;;;;5043136;28;88242;-37
2022/08/14 13:25:28;;;;;;;;;;;19.90;66.00;;;;;;5042933;27;89005;-37
2022/08/14 13:27:55;;;;;;;;;;;19.90;66.00;;;;;;5042119;28;89535;-37
2022/08/14 13:30:23;;;;;;;;;;;19.90;66.00;;;;;;5045695;28;87104;-37
2022/08/14 13:32:49;;;;;;;;;;;19.90;65.90;;;;;;5042427;28;88087;-37
2022/08/14 13:35:15;;;;;;;;;;;19.90;65.90;;;;;;5043036;28;87440;-37
2022/08/14 13:37:43;;;;;;;;;;;19.90;65.90;;;;;;5043361;27;87403;-37
2022/08/14 13:40:10;;;;;;;;;;;19.90;65.80;;;;;;5042572;28;87282;-37
2022/08/14 13:42:35;;;;;;;;;;;19.90;65.90;;;;;;5042976;28;87066;-37
2022/08/14 13:45:03;;;;;;;;;;;19.90;65.90;;;;;;5041697;27;88766;-37
2022/08/14 13:47:29;;;;;;;;;;;19.90;65.80;;;;;;5042209;28;89660;-37
2022/08/14 13:49:59;;;;;;;;;;;19.90;65.80;;;;;;5045976;28;87223;-37
2022/08/14 13:52:25;;;;;;;;;;;19.90;65.80;;;;;;5042023;28;89559;-37
2022/08/14 13:54:52;;;;;;;;;;;19.90;65.90;;;;;;5042839;28;87014;-37
2022/08/14 13:57:18;;;;;;;;;;;19.90;65.90;;;;;;5042478;27;87502;-38
2022/08/14 13:59:45;;;;;;;;;;;19.90;66.00;;;;;;5042091;28;87766;-37
2022/08/14 14:02:11;;;;;;;;;;;19.90;65.60;;;;;;5042715;28;86228;-37
2022/08/14 14:04:38;;;;;;;;;;;20.00;65.80;;;;;;5042667;28;87006;-37
2022/08/14 14:07:04;;;;;;;;;;;20.00;65.90;;;;;;5042157;28;88012;-37
2022/08/14 14:09:30;;;;;;;;;;;20.00;66.00;;;;;;5041249;28;88052;-37
2022/08/14 14:11:59;;;;;;;;;;;20.00;65.90;;;;;;5044591;28;89802;-37
2022/08/14 14:14:25;;;;;;;;;;;20.00;65.70;;;;;;5042051;28;87092;-37
2022/08/14 14:16:50;;;;;;;;;;;20.00;65.60;;;;;;5041941;28;87424;-37
2022/08/14 14:19:19;;;;;;;;;;;20.00;65.60;;;;;;5042560;28;87096;-37
2022/08/14 14:21:48;;;;;;;;;;;20.00;65.80;;;;;;5045873;28;87467;-37
2022/08/14 14:24:14;;;;;;;;;;;20.00;65.40;;;;;;5045734;27;87345;-37
2022/08/14 14:26:42;;;;;;;;;;;20.00;65.70;;;;;;5045855;28;87421;-37
2022/08/14 14:29:13;;;;;;;;;;;20.00;65.60;;;;;;5045348;28;87101;-37